createdAt,value
2022-12-13T00:00:35.531Z,76.71
2022-12-13T00:03:40.223Z,76.72
2022-12-13T00:06:47.403Z,76.95
2022-12-13T00:09:52.486Z,77.64
2022-12-13T00:12:57.300Z,78.18
2022-12-13T00:16:03.505Z,78.36
2022-12-13T00:19:08.314Z,77.70
2022-12-13T00:22:14.864Z,78.08
2022-12-13T00:25:21.608Z,77.91
2022-12-13T00:28:26.344Z,78.40
2022-12-13T00:34:56.767Z,78.66
2022-12-13T00:38:05.115Z,77.51
2022-12-13T00:41:15.119Z,77.04
2022-12-13T00:44:21.088Z,77.19
2022-12-13T00:47:25.997Z,77.40
2022-12-13T00:50:31.268Z,76.75
2022-12-13T00:53:39.944Z,77.17
2022-12-13T00:56:44.961Z,77.62
2022-12-13T00:59:50.494Z,77.50
2022-12-13T01:02:58.496Z,77.27
2022-12-13T01:06:15.005Z,77.65
2022-12-13T01:09:40.506Z,77.35
2022-12-13T01:12:45.472Z,76.76
2022-12-13T01:15:51.636Z,76.88
2022-12-13T01:18:56.527Z,76.68
2022-12-13T01:22:02.624Z,76.45
2022-12-13T01:25:09.063Z,77.01
2022-12-13T01:28:13.808Z,78.04
2022-12-13T01:31:22.235Z,77.96
2022-12-13T01:34:28.188Z,77.52
2022-12-13T01:37:33.127Z,77.24
2022-12-13T01:40:47.545Z,77.04
2022-12-13T01:44:03.428Z,76.61
2022-12-13T01:47:09.010Z,75.32
2022-12-13T01:50:17.871Z,76.03
2022-12-13T01:53:27.016Z,76.02
2022-12-13T01:56:38.579Z,76.92
2022-12-13T01:59:44.025Z,77.16
2022-12-13T02:02:50.746Z,76.24
2022-12-13T02:06:02.052Z,76.64
2022-12-13T02:09:09.253Z,76.62
2022-12-13T02:12:15.990Z,76.34
2022-12-13T02:15:22.733Z,76.17
2022-12-13T02:18:40.242Z,76.09
2022-12-13T02:21:56.234Z,76.51
2022-12-13T02:25:23.024Z,76.02
2022-12-13T02:28:52.726Z,76.21
2022-12-13T02:32:06.832Z,77.10
2022-12-13T02:35:19.054Z,76.87
2022-12-13T02:38:31.360Z,76.83
2022-12-13T02:41:39.587Z,76.28
2022-12-13T02:44:49.764Z,76.22
2022-12-13T02:47:59.890Z,76.39
2022-12-13T02:51:07.581Z,76.92
2022-12-13T02:54:13.118Z,76.64
2022-12-13T02:57:36.175Z,76.89
2022-12-13T03:00:51.273Z,77.08
2022-12-13T03:04:09.001Z,76.56
2022-12-13T03:07:22.883Z,76.01
2022-12-13T03:10:34.815Z,76.04
2022-12-13T03:13:51.582Z,75.73
2022-12-13T03:16:58.558Z,75.75
2022-12-13T03:20:22.787Z,76.00
2022-12-13T03:23:28.713Z,76.80
2022-12-13T03:26:33.692Z,76.86
2022-12-13T03:29:38.478Z,76.85
2022-12-13T03:32:43.350Z,76.92
2022-12-13T03:35:49.469Z,77.39
2022-12-13T03:38:55.867Z,77.86
2022-12-13T03:42:00.779Z,77.08
2022-12-13T03:45:06.369Z,77.50
2022-12-13T03:48:11.577Z,77.61
2022-12-13T03:51:17.841Z,77.80
2022-12-13T03:54:22.952Z,77.65
2022-12-13T03:57:29.496Z,77.48
2022-12-13T04:00:34.220Z,77.12
2022-12-13T04:03:40.043Z,77.11
2022-12-13T04:06:46.414Z,77.18
2022-12-13T04:09:52.583Z,76.81
2022-12-13T04:13:14.536Z,77.27
2022-12-13T04:16:19.662Z,77.20
2022-12-13T04:19:24.436Z,77.45
2022-12-13T04:22:30.608Z,77.58
2022-12-13T04:25:34.497Z,77.17
2022-12-13T04:28:38.878Z,76.91
2022-12-13T04:31:43.836Z,77.28
2022-12-13T04:34:48.434Z,77.67
2022-12-13T04:37:54.681Z,76.98
2022-12-13T04:41:07.931Z,77.53
2022-12-13T04:44:27.606Z,77.72
2022-12-13T04:47:35.566Z,78.44
2022-12-13T04:50:40.229Z,76.88
2022-12-13T04:53:46.736Z,77.33
2022-12-13T04:56:51.793Z,76.87
2022-12-13T04:59:59.209Z,76.92
2022-12-13T05:03:04.537Z,76.86
2022-12-13T05:06:26.573Z,76.70
2022-12-13T05:09:34.186Z,76.83
2022-12-13T05:12:39.326Z,77.11
2022-12-13T05:15:44.193Z,77.07
2022-12-13T05:18:48.680Z,76.73
2022-12-13T05:21:53.257Z,76.97
2022-12-13T05:24:59.808Z,76.51
2022-12-13T05:28:08.924Z,76.64
2022-12-13T05:31:29.320Z,76.67
2022-12-13T05:34:35.370Z,76.65
2022-12-13T05:37:40.470Z,78.12
2022-12-13T05:40:46.946Z,78.51
2022-12-13T05:43:51.742Z,80.53
2022-12-13T05:46:56.403Z,80.96
2022-12-13T05:50:01.270Z,80.96
2022-12-13T05:53:06.361Z,78.68
2022-12-13T05:56:13.232Z,77.59
2022-12-13T05:59:27.642Z,76.75
2022-12-13T06:02:32.207Z,76.42
2022-12-13T06:05:37.582Z,76.67
2022-12-13T06:08:43.350Z,76.98
2022-12-13T06:11:49.836Z,76.63
2022-12-13T06:14:54.616Z,77.32
2022-12-13T06:18:06.501Z,78.27
2022-12-13T06:21:12.380Z,78.07
2022-12-13T06:24:18.262Z,78.02
2022-12-13T06:27:24.958Z,77.84
2022-12-13T06:30:30.315Z,77.39
2022-12-13T06:33:37.087Z,77.95
2022-12-13T06:36:41.576Z,77.96
2022-12-13T06:39:45.998Z,77.62
2022-12-13T06:42:52.285Z,77.75
2022-12-13T06:45:57.153Z,78.31
2022-12-13T06:49:01.832Z,78.28
2022-12-13T06:52:06.537Z,77.80
2022-12-13T06:55:11.776Z,77.75
2022-12-13T06:58:17.815Z,77.89
2022-12-13T07:01:24.589Z,77.55
2022-12-13T07:04:29.454Z,77.79
2022-12-13T07:07:33.516Z,77.33
2022-12-13T07:10:36.211Z,77.18
2022-12-13T07:13:40.192Z,76.68
2022-12-13T07:16:42.873Z,76.15
2022-12-13T07:19:45.881Z,76.71
2022-12-13T07:22:58.308Z,76.67
2022-12-13T07:26:02.572Z,76.64
2022-12-13T07:29:06.576Z,76.54
2022-12-13T07:32:09.246Z,76.55
2022-12-13T07:35:12.066Z,76.77
2022-12-13T07:38:14.723Z,77.25
2022-12-13T07:41:23.331Z,77.29
2022-12-13T07:44:28.268Z,77.32
2022-12-13T07:47:31.724Z,77.61
2022-12-13T07:50:37.532Z,77.76
2022-12-13T07:53:41.279Z,78.45
2022-12-13T07:56:43.933Z,78.51
2022-12-13T07:59:48.024Z,79.13
2022-12-13T08:02:50.699Z,78.99
2022-12-13T08:06:00.162Z,78.46
2022-12-13T08:09:03.031Z,78.76
2022-12-13T08:12:06.303Z,78.47
2022-12-13T08:15:14.147Z,78.68
2022-12-13T08:18:17.068Z,78.13
2022-12-13T08:21:52.512Z,77.78
2022-12-13T08:24:42.336Z,77.82
2022-12-13T08:27:45.025Z,77.15
2022-12-13T08:30:50.195Z,76.90
2022-12-13T08:33:52.816Z,76.79
2022-12-13T08:37:02.286Z,76.96
2022-12-13T08:40:07.004Z,76.57
2022-12-13T08:43:09.680Z,77.32
2022-12-13T08:46:13.865Z,78.00
2022-12-13T08:49:16.602Z,77.40
2022-12-13T08:52:19.408Z,77.49
2022-12-13T08:55:31.308Z,76.66
2022-12-13T08:58:35.335Z,78.24
2022-12-13T09:01:39.902Z,78.47
2022-12-13T09:04:43.496Z,78.22
2022-12-13T09:07:46.169Z,76.94
2022-12-13T09:10:59.177Z,76.93
2022-12-13T09:14:02.487Z,78.77
2022-12-13T09:17:06.988Z,78.83
2022-12-13T09:20:28.498Z,78.93
2022-12-13T09:23:35.638Z,79.15
2022-12-13T09:26:38.734Z,78.63
2022-12-13T09:29:41.648Z,76.24
2022-12-13T09:32:49.887Z,74.91
2022-12-13T09:35:53.242Z,73.92
2022-12-13T09:38:58.698Z,72.58
2022-12-13T09:42:10.434Z,72.37
2022-12-13T09:45:22.388Z,71.92
2022-12-13T09:48:37.224Z,73.83
2022-12-13T09:51:45.905Z,75.65
2022-12-13T09:54:54.357Z,75.75
2022-12-13T09:57:57.311Z,75.05
2022-12-13T10:01:00.403Z,76.30
2022-12-13T10:04:04.572Z,74.87
2022-12-13T10:07:18.020Z,74.23
2022-12-13T10:10:21.092Z,74.76
2022-12-13T10:13:28.728Z,73.41
2022-12-13T10:16:41.019Z,74.19
2022-12-13T10:19:46.556Z,73.23
2022-12-13T10:23:15.040Z,74.42
2022-12-13T10:26:14.758Z,72.01
2022-12-13T10:29:26.856Z,72.01
2022-12-13T10:32:37.733Z,72.09
2022-12-13T10:35:42.422Z,72.42
2022-12-13T10:38:46.898Z,72.11
2022-12-13T10:41:49.599Z,70.02
2022-12-13T10:45:11.435Z,70.98
2022-12-13T10:48:22.220Z,68.76
2022-12-13T10:51:26.379Z,69.27
2022-12-13T10:54:38.691Z,69.27
2022-12-13T10:57:53.334Z,68.44
2022-12-13T11:01:10.204Z,67.85
2022-12-13T11:04:27.609Z,68.57
2022-12-13T11:07:34.343Z,66.34
2022-12-13T11:10:37.840Z,66.99
2022-12-13T11:13:46.319Z,66.79
2022-12-13T11:16:52.891Z,64.28
2022-12-13T11:19:58.137Z,64.99
2022-12-13T11:23:05.727Z,62.17
2022-12-13T11:26:12.422Z,62.69
2022-12-13T11:29:47.655Z,62.87
2022-12-13T11:33:16.052Z,62.92
2022-12-13T11:36:29.632Z,64.02
2022-12-13T11:39:37.899Z,64.09
2022-12-13T11:42:46.630Z,64.92
2022-12-13T11:45:55.111Z,63.36
2022-12-13T11:49:01.387Z,63.69
2022-12-13T11:52:12.495Z,62.75
2022-12-13T11:55:21.135Z,62.15
2022-12-13T11:59:02.490Z,60.87
2022-12-13T12:02:04.809Z,59.51
2022-12-13T12:05:24.040Z,59.88
2022-12-13T12:08:36.333Z,62.23
2022-12-13T12:11:46.751Z,64.08
2022-12-13T12:14:57.556Z,63.23
2022-12-13T12:18:14.350Z,62.45
2022-12-13T12:21:49.492Z,63.00
2022-12-13T12:25:08.291Z,63.93
2022-12-13T12:28:22.461Z,63.13
2022-12-13T12:31:32.220Z,61.48
2022-12-13T12:34:46.391Z,61.88
2022-12-13T12:37:54.769Z,61.97
2022-12-13T12:41:19.294Z,61.03
2022-12-13T12:44:39.678Z,62.30
2022-12-13T12:48:46.259Z,61.92
2022-12-13T12:51:21.916Z,58.16
2022-12-13T12:54:44.397Z,58.25
2022-12-13T12:58:01.635Z,57.56
2022-12-13T13:01:25.467Z,56.50
2022-12-13T13:04:35.644Z,53.43
2022-12-13T13:07:44.737Z,53.40
2022-12-13T13:10:55.175Z,52.05
2022-12-13T13:14:08.171Z,51.24
2022-12-13T13:17:40.603Z,51.63
2022-12-13T13:20:44.705Z,50.80
2022-12-13T13:23:47.811Z,50.74
2022-12-13T13:26:53.464Z,51.55
2022-12-13T13:30:06.249Z,52.38
2022-12-13T13:33:42.701Z,52.64
2022-12-13T13:36:52.510Z,54.09
2022-12-13T13:40:01.380Z,54.38
2022-12-13T13:43:16.379Z,55.68
2022-12-13T13:46:19.123Z,55.93
2022-12-13T13:49:22.092Z,56.47
2022-12-13T13:52:27.948Z,58.09
2022-12-13T13:55:48.653Z,60.03
2022-12-13T13:59:24.643Z,61.05
2022-12-13T14:03:22.147Z,61.75
2022-12-13T14:07:35.482Z,61.60
2022-12-13T14:10:52.440Z,62.93
2022-12-13T14:14:38.925Z,63.85
2022-12-13T14:18:22.790Z,62.40
2022-12-13T14:21:33.500Z,63.15
2022-12-13T14:24:47.108Z,63.32
2022-12-13T14:27:54.501Z,63.48
2022-12-13T14:30:57.870Z,63.22
2022-12-13T14:34:03.032Z,64.04
2022-12-13T14:37:07.625Z,64.52
2022-12-13T14:40:28.526Z,63.78
2022-12-13T14:43:33.127Z,62.96
2022-12-13T14:46:36.013Z,63.61
2022-12-13T14:49:41.973Z,63.85
2022-12-13T14:52:51.731Z,64.26
2022-12-13T14:56:07.386Z,63.15
2022-12-13T14:59:14.391Z,63.25
2022-12-13T15:02:18.807Z,63.38
2022-12-13T15:05:38.489Z,63.17
2022-12-13T15:08:41.857Z,63.10
2022-12-13T15:11:46.647Z,64.44
2022-12-13T15:14:52.272Z,64.80
2022-12-13T15:18:17.220Z,64.28
2022-12-13T15:21:23.241Z,62.94
2022-12-13T15:24:29.467Z,63.29
2022-12-13T15:27:33.781Z,62.68
2022-12-13T15:30:36.960Z,62.11
2022-12-13T15:33:48.062Z,61.79
2022-12-13T15:36:51.723Z,61.71
2022-12-13T15:39:58.650Z,62.35
2022-12-13T15:43:02.949Z,62.24
2022-12-13T15:46:07.989Z,62.80
2022-12-13T15:49:23.262Z,62.98
2022-12-13T15:52:35.468Z,62.97
2022-12-13T15:55:38.345Z,63.83
2022-12-13T15:58:42.438Z,63.42
2022-12-13T16:01:57.860Z,63.66
2022-12-13T16:05:07.962Z,63.54
2022-12-13T16:08:26.080Z,64.11
2022-12-13T16:11:33.105Z,64.58
2022-12-13T16:14:49.215Z,65.89
2022-12-13T16:17:54.783Z,65.78
2022-12-13T16:21:02.132Z,66.47
2022-12-13T16:24:05.076Z,66.49
2022-12-13T16:27:08.357Z,66.57
2022-12-13T16:30:23.972Z,67.66
2022-12-13T16:33:27.869Z,66.57
2022-12-13T16:36:30.656Z,67.50
2022-12-13T16:39:33.799Z,66.73
2022-12-13T16:42:36.461Z,65.78
2022-12-13T16:45:43.466Z,65.10
2022-12-13T16:48:46.095Z,65.19
2022-12-13T16:51:49.401Z,64.71
2022-12-13T16:54:52.725Z,65.76
2022-12-13T16:57:59.852Z,64.10
2022-12-13T17:01:09.667Z,64.22
2022-12-13T17:04:19.247Z,65.65
2022-12-13T17:07:23.576Z,66.24
2022-12-13T17:10:26.230Z,65.67
2022-12-13T17:13:29.677Z,67.17
2022-12-13T17:16:34.097Z,66.65
2022-12-13T17:19:37.870Z,67.43
2022-12-13T17:22:40.591Z,66.93
2022-12-13T17:25:43.339Z,67.30
2022-12-13T17:28:46.119Z,66.79
2022-12-13T17:31:50.170Z,66.97
2022-12-13T17:34:53.304Z,67.94
2022-12-13T17:37:56.063Z,67.91
2022-12-13T17:41:00.600Z,67.61
2022-12-13T17:44:03.502Z,68.62
2022-12-13T17:47:07.934Z,68.52
2022-12-13T17:50:10.876Z,68.13
2022-12-13T17:53:13.615Z,68.87
2022-12-13T17:56:17.329Z,68.94
2022-12-13T17:59:20.240Z,68.99
2022-12-13T18:02:24.563Z,70.04
2022-12-13T18:05:27.266Z,69.29
2022-12-13T18:08:29.957Z,69.94
2022-12-13T18:11:34.001Z,69.05
2022-12-13T18:14:37.248Z,70.43
2022-12-13T18:18:10.247Z,70.80
2022-12-13T18:21:05.741Z,70.60
2022-12-13T18:24:09.051Z,70.79
2022-12-13T18:27:11.651Z,70.85
2022-12-13T18:30:14.731Z,71.58
2022-12-13T18:33:18.719Z,69.95
2022-12-13T18:36:23.257Z,69.42
2022-12-13T18:39:25.912Z,69.44
2022-12-13T18:42:28.574Z,70.48
2022-12-13T18:45:31.999Z,71.12
2022-12-13T18:48:36.055Z,70.78
2022-12-13T18:51:38.751Z,70.91
2022-12-13T18:54:41.399Z,69.86
2022-12-13T18:57:44.038Z,70.60
2022-12-13T19:00:46.674Z,72.10
2022-12-13T19:03:50.776Z,71.66
2022-12-13T19:06:53.583Z,70.17
2022-12-13T19:09:56.238Z,70.03
2022-12-13T19:12:58.883Z,71.98
2022-12-13T19:16:07.826Z,71.97
2022-12-13T19:19:11.924Z,72.46
2022-12-13T19:22:14.895Z,71.37
2022-12-13T19:25:20.437Z,70.45
2022-12-13T19:28:23.084Z,71.57
2022-12-13T19:31:31.055Z,71.68
2022-12-13T19:34:36.439Z,70.94
2022-12-13T19:37:39.527Z,70.85
2022-12-13T19:40:43.474Z,70.91
2022-12-13T19:43:52.280Z,71.31
2022-12-13T19:46:55.866Z,71.80
2022-12-13T19:49:59.927Z,71.78
2022-12-13T19:53:02.879Z,71.55
2022-12-13T19:56:09.655Z,70.16
2022-12-13T19:59:12.335Z,70.90
2022-12-13T20:02:15.918Z,70.72
2022-12-13T20:05:20.555Z,69.49
2022-12-13T20:08:23.256Z,69.89
2022-12-13T20:11:25.934Z,68.90
2022-12-13T20:14:29.028Z,67.99
2022-12-13T20:17:32.409Z,68.59
2022-12-13T20:21:02.503Z,69.14
2022-12-13T20:23:59.586Z,70.11
2022-12-13T20:27:02.303Z,69.84
2022-12-13T20:30:06.384Z,70.11
2022-12-13T20:33:09.291Z,70.82
2022-12-13T20:36:24.188Z,70.14
2022-12-13T20:39:28.085Z,69.54
2022-12-13T20:42:31.393Z,70.39
2022-12-13T20:45:33.999Z,70.19
2022-12-13T20:48:37.380Z,70.78
2022-12-13T20:51:42.243Z,69.99
2022-12-13T20:54:45.288Z,71.06
2022-12-13T20:57:47.967Z,69.94
2022-12-13T21:00:50.739Z,70.03
2022-12-13T21:03:54.695Z,69.65
2022-12-13T21:06:58.703Z,71.00
2022-12-13T21:10:01.295Z,69.67
2022-12-13T21:13:03.985Z,69.29
2022-12-13T21:16:07.040Z,69.72
2022-12-13T21:19:14.136Z,69.79
2022-12-13T21:22:19.036Z,70.43
2022-12-13T21:25:21.677Z,69.57
2022-12-13T21:28:25.084Z,70.26
2022-12-13T21:31:29.669Z,70.29
2022-12-13T21:34:32.949Z,70.10
2022-12-13T21:37:37.045Z,70.21
2022-12-13T21:40:45.386Z,70.75
2022-12-13T21:43:48.449Z,70.35
2022-12-13T21:50:14.226Z,71.43
2022-12-13T21:53:18.414Z,70.29
2022-12-13T21:56:41.162Z,70.55
2022-12-13T21:59:43.907Z,69.57
2022-12-13T22:02:46.628Z,69.39
2022-12-13T22:05:49.276Z,69.73
2022-12-13T22:08:53.288Z,69.75
2022-12-13T22:11:55.994Z,69.82
2022-12-13T22:14:58.737Z,70.14
2022-12-13T22:18:01.383Z,69.28
2022-12-13T22:21:04.149Z,68.90
2022-12-13T22:24:09.007Z,68.79
2022-12-13T22:27:11.631Z,68.18
2022-12-13T22:30:14.483Z,67.88
2022-12-13T22:33:17.399Z,68.47
2022-12-13T22:36:20.023Z,68.58
2022-12-13T22:39:24.828Z,68.00
2022-12-13T22:42:27.639Z,68.20
2022-12-13T22:45:30.325Z,69.09
2022-12-13T22:48:33.412Z,69.24
2022-12-13T22:51:36.833Z,69.50
2022-12-13T22:54:40.803Z,69.83
2022-12-13T22:57:43.770Z,68.98
2022-12-13T23:00:51.465Z,70.02
2022-12-13T23:03:54.683Z,68.55
2022-12-13T23:06:57.324Z,69.86
2022-12-13T23:10:01.391Z,69.09
2022-12-13T23:13:03.157Z,68.93
2022-12-13T23:16:06.873Z,70.24
2022-12-13T23:19:40.307Z,69.86
2022-12-13T23:22:34.843Z,71.20
2022-12-13T23:25:38.841Z,68.57
2022-12-13T23:28:42.701Z,69.80
2022-12-13T23:31:48.548Z,70.36
2022-12-13T23:34:52.261Z,69.40
2022-12-13T23:37:54.927Z,70.11
2022-12-13T23:41:08.767Z,69.66
2022-12-13T23:44:11.529Z,69.40
2022-12-13T23:47:14.498Z,69.69
2022-12-13T23:50:18.058Z,70.11
2022-12-13T23:53:20.892Z,69.71
2022-12-13T23:56:25.222Z,68.26
2022-12-13T23:59:28.429Z,66.96
